sensor_id;sensor_type;location;lat;lon;timestamp;P1;durP1;ratioP1;P2;durP2;ratioP2
61911;SDS011;49973;52.084;5.412;2023-08-31T00:00:08;4.27;;;2.30;;
61911;SDS011;49973;52.084;5.412;2023-08-31T00:02:38;3.57;;;2.57;;
61911;SDS011;49973;52.084;5.412;2023-08-31T00:05:08;11.63;;;2.73;;
61911;SDS011;49973;52.084;5.412;2023-08-31T00:07:38;4.30;;;2.97;;
61911;SDS011;49973;52.084;5.412;2023-08-31T00:10:08;5.67;;;2.90;;
61911;SDS011;49973;52.084;5.412;2023-08-31T00:12:38;4.40;;;2.83;;
61911;SDS011;49973;52.084;5.412;2023-08-31T00:15:07;7.70;;;3.03;;
61911;SDS011;49973;52.084;5.412;2023-08-31T00:17:37;5.60;;;2.77;;
61911;SDS011;49973;52.084;5.412;2023-08-31T00:20:06;4.23;;;2.83;;
61911;SDS011;49973;52.084;5.412;2023-08-31T00:22:40;8.07;;;2.50;;
61911;SDS011;49973;52.084;5.412;2023-08-31T00:25:08;6.90;;;2.57;;
61911;SDS011;49973;52.084;5.412;2023-08-31T00:27:37;5.53;;;2.80;;
61911;SDS011;49973;52.084;5.412;2023-08-31T00:30:09;7.13;;;3.03;;
61911;SDS011;49973;52.084;5.412;2023-08-31T00:32:41;5.17;;;3.13;;
61911;SDS011;49973;52.084;5.412;2023-08-31T00:35:10;2.93;;;2.40;;
61911;SDS011;49973;52.084;5.412;2023-08-31T00:37:40;8.13;;;2.90;;
61911;SDS011;49973;52.084;5.412;2023-08-31T00:40:09;4.70;;;2.77;;
61911;SDS011;49973;52.084;5.412;2023-08-31T00:42:41;6.80;;;3.20;;
61911;SDS011;49973;52.084;5.412;2023-08-31T00:45:09;6.90;;;3.73;;
61911;SDS011;49973;52.084;5.412;2023-08-31T00:47:38;8.50;;;3.87;;
61911;SDS011;49973;52.084;5.412;2023-08-31T00:50:07;8.07;;;3.80;;
61911;SDS011;49973;52.084;5.412;2023-08-31T00:52:37;5.77;;;3.70;;
61911;SDS011;49973;52.084;5.412;2023-08-31T00:55:08;7.70;;;4.40;;
61911;SDS011;49973;52.084;5.412;2023-08-31T00:57:37;8.80;;;3.97;;
61911;SDS011;49973;52.084;5.412;2023-08-31T01:00:08;9.70;;;4.07;;
61911;SDS011;49973;52.084;5.412;2023-08-31T01:02:40;9.60;;;4.83;;
61911;SDS011;49973;52.084;5.412;2023-08-31T01:05:22;6.73;;;4.53;;
61911;SDS011;49973;52.084;5.412;2023-08-31T01:08:03;6.30;;;4.23;;
61911;SDS011;49973;52.084;5.412;2023-08-31T01:10:43;9.57;;;4.87;;
61911;SDS011;49973;52.084;5.412;2023-08-31T01:13:25;9.70;;;5.43;;
61911;SDS011;49973;52.084;5.412;2023-08-31T01:15:58;8.10;;;5.13;;
61911;SDS011;49973;52.084;5.412;2023-08-31T01:18:31;9.13;;;5.03;;
61911;SDS011;49973;52.084;5.412;2023-08-31T01:21:05;9.57;;;5.40;;
61911;SDS011;49973;52.084;5.412;2023-08-31T01:23:49;11.10;;;5.00;;
61911;SDS011;49973;52.084;5.412;2023-08-31T01:26:20;11.37;;;5.70;;
61911;SDS011;49973;52.084;5.412;2023-08-31T01:28:50;11.87;;;5.93;;
61911;SDS011;49973;52.084;5.412;2023-08-31T01:31:19;12.50;;;6.00;;
61911;SDS011;49973;52.084;5.412;2023-08-31T01:33:48;8.87;;;5.13;;
61911;SDS011;49973;52.084;5.412;2023-08-31T01:36:19;16.13;;;6.53;;
61911;SDS011;49973;52.084;5.412;2023-08-31T01:38:54;10.70;;;6.57;;
61911;SDS011;49973;52.084;5.412;2023-08-31T01:41:26;12.70;;;6.90;;
61911;SDS011;49973;52.084;5.412;2023-08-31T01:43:58;13.90;;;6.77;;
61911;SDS011;49973;52.084;5.412;2023-08-31T01:46:29;12.97;;;7.50;;
61911;SDS011;49973;52.084;5.412;2023-08-31T01:48:59;15.17;;;7.40;;
61911;SDS011;49973;52.084;5.412;2023-08-31T01:51:29;16.03;;;7.67;;
61911;SDS011;49973;52.084;5.412;2023-08-31T01:54:00;15.77;;;7.40;;
61911;SDS011;49973;52.084;5.412;2023-08-31T01:56:30;13.27;;;7.77;;
61911;SDS011;49973;52.084;5.412;2023-08-31T01:58:58;12.07;;;7.17;;
61911;SDS011;49973;52.084;5.412;2023-08-31T02:01:27;19.67;;;7.77;;
61911;SDS011;49973;52.084;5.412;2023-08-31T02:03:57;12.43;;;7.67;;
61911;SDS011;49973;52.084;5.412;2023-08-31T02:06:27;11.40;;;7.47;;
61911;SDS011;49973;52.084;5.412;2023-08-31T02:08:55;14.07;;;7.73;;
61911;SDS011;49973;52.084;5.412;2023-08-31T02:11:25;16.57;;;7.07;;
61911;SDS011;49973;52.084;5.412;2023-08-31T02:13:55;13.00;;;7.17;;
61911;SDS011;49973;52.084;5.412;2023-08-31T02:16:24;13.23;;;8.30;;
61911;SDS011;49973;52.084;5.412;2023-08-31T02:18:52;15.40;;;8.27;;
61911;SDS011;49973;52.084;5.412;2023-08-31T02:21:22;17.13;;;7.43;;
61911;SDS011;49973;52.084;5.412;2023-08-31T02:23:52;14.60;;;6.90;;
61911;SDS011;49973;52.084;5.412;2023-08-31T02:26:21;14.03;;;7.33;;
61911;SDS011;49973;52.084;5.412;2023-08-31T02:28:51;12.67;;;7.87;;
61911;SDS011;49973;52.084;5.412;2023-08-31T02:31:20;11.40;;;7.53;;
61911;SDS011;49973;52.084;5.412;2023-08-31T02:33:49;17.33;;;8.40;;
61911;SDS011;49973;52.084;5.412;2023-08-31T02:36:18;11.23;;;6.93;;
61911;SDS011;49973;52.084;5.412;2023-08-31T02:38:47;13.00;;;7.33;;
61911;SDS011;49973;52.084;5.412;2023-08-31T02:41:16;13.20;;;7.17;;
61911;SDS011;49973;52.084;5.412;2023-08-31T02:43:45;9.73;;;6.90;;
61911;SDS011;49973;52.084;5.412;2023-08-31T02:46:15;11.77;;;7.30;;
61911;SDS011;49973;52.084;5.412;2023-08-31T02:48:44;12.30;;;6.70;;
61911;SDS011;49973;52.084;5.412;2023-08-31T02:51:14;15.97;;;7.00;;
61911;SDS011;49973;52.084;5.412;2023-08-31T02:53:43;9.77;;;6.40;;
61911;SDS011;49973;52.084;5.412;2023-08-31T02:56:11;11.97;;;6.17;;
61911;SDS011;49973;52.084;5.412;2023-08-31T02:58:40;10.77;;;6.97;;
61911;SDS011;49973;52.084;5.412;2023-08-31T03:01:09;10.40;;;6.57;;
61911;SDS011;49973;52.084;5.412;2023-08-31T03:03:43;10.97;;;6.23;;
61911;SDS011;49973;52.084;5.412;2023-08-31T03:06:13;8.67;;;4.90;;
61911;SDS011;49973;52.084;5.412;2023-08-31T03:08:42;10.33;;;5.17;;
61911;SDS011;49973;52.084;5.412;2023-08-31T03:11:11;9.03;;;5.17;;
61911;SDS011;49973;52.084;5.412;2023-08-31T03:13:41;8.23;;;4.93;;
61911;SDS011;49973;52.084;5.412;2023-08-31T03:16:11;8.17;;;4.13;;
61911;SDS011;49973;52.084;5.412;2023-08-31T03:18:42;6.30;;;3.93;;
61911;SDS011;49973;52.084;5.412;2023-08-31T03:21:12;7.57;;;3.67;;
61911;SDS011;49973;52.084;5.412;2023-08-31T03:23:40;5.87;;;3.67;;
61911;SDS011;49973;52.084;5.412;2023-08-31T03:26:09;4.83;;;3.57;;
61911;SDS011;49973;52.084;5.412;2023-08-31T03:28:38;6.30;;;4.03;;
61911;SDS011;49973;52.084;5.412;2023-08-31T03:31:08;5.30;;;3.87;;
61911;SDS011;49973;52.084;5.412;2023-08-31T03:33:36;4.93;;;3.30;;
61911;SDS011;49973;52.084;5.412;2023-08-31T03:36:07;6.23;;;3.53;;
61911;SDS011;49973;52.084;5.412;2023-08-31T03:38:35;7.50;;;3.60;;
61911;SDS011;49973;52.084;5.412;2023-08-31T03:41:05;9.60;;;4.27;;
61911;SDS011;49973;52.084;5.412;2023-08-31T03:43:34;6.60;;;3.50;;
61911;SDS011;49973;52.084;5.412;2023-08-31T03:46:02;3.00;;;2.63;;
61911;SDS011;49973;52.084;5.412;2023-08-31T03:48:31;6.33;;;3.20;;
61911;SDS011;49973;52.084;5.412;2023-08-31T03:51:00;5.67;;;3.73;;
61911;SDS011;49973;52.084;5.412;2023-08-31T03:53:31;12.03;;;3.90;;
61911;SDS011;49973;52.084;5.412;2023-08-31T03:55:59;4.60;;;3.17;;
61911;SDS011;49973;52.084;5.412;2023-08-31T03:58:29;4.23;;;2.93;;
61911;SDS011;49973;52.084;5.412;2023-08-31T04:00:58;5.80;;;3.03;;
61911;SDS011;49973;52.084;5.412;2023-08-31T04:03:27;9.87;;;3.83;;
61911;SDS011;49973;52.084;5.412;2023-08-31T04:05:56;5.30;;;3.57;;
61911;SDS011;49973;52.084;5.412;2023-08-31T04:08:25;6.13;;;3.20;;
61911;SDS011;49973;52.084;5.412;2023-08-31T04:10:55;13.70;;;3.87;;
61911;SDS011;49973;52.084;5.412;2023-08-31T04:13:24;8.13;;;4.13;;
61911;SDS011;49973;52.084;5.412;2023-08-31T04:15:53;10.07;;;4.30;;
61911;SDS011;49973;52.084;5.412;2023-08-31T04:18:22;8.27;;;4.20;;
61911;SDS011;49973;52.084;5.412;2023-08-31T04:20:51;9.43;;;4.13;;
61911;SDS011;49973;52.084;5.412;2023-08-31T04:23:20;17.27;;;5.97;;
61911;SDS011;49973;52.084;5.412;2023-08-31T04:25:49;8.43;;;5.27;;
61911;SDS011;49973;52.084;5.412;2023-08-31T04:28:21;9.97;;;5.73;;
61911;SDS011;49973;52.084;5.412;2023-08-31T04:30:50;8.37;;;5.77;;
61911;SDS011;49973;52.084;5.412;2023-08-31T04:33:19;12.53;;;6.87;;
61911;SDS011;49973;52.084;5.412;2023-08-31T04:35:48;14.70;;;6.80;;
61911;SDS011;49973;52.084;5.412;2023-08-31T04:38:17;13.27;;;6.80;;
61911;SDS011;49973;52.084;5.412;2023-08-31T04:40:45;15.40;;;7.87;;
61911;SDS011;49973;52.084;5.412;2023-08-31T04:43:14;17.10;;;7.30;;
61911;SDS011;49973;52.084;5.412;2023-08-31T04:45:45;12.07;;;7.87;;
61911;SDS011;49973;52.084;5.412;2023-08-31T04:48:13;18.80;;;9.30;;
61911;SDS011;49973;52.084;5.412;2023-08-31T04:50:42;17.83;;;9.00;;
61911;SDS011;49973;52.084;5.412;2023-08-31T04:53:11;16.87;;;8.23;;
61911;SDS011;49973;52.084;5.412;2023-08-31T04:55:40;18.00;;;9.27;;
61911;SDS011;49973;52.084;5.412;2023-08-31T04:58:09;17.03;;;9.20;;
61911;SDS011;49973;52.084;5.412;2023-08-31T05:00:37;24.70;;;9.33;;
61911;SDS011;49973;52.084;5.412;2023-08-31T05:03:10;17.63;;;8.80;;
61911;SDS011;49973;52.084;5.412;2023-08-31T05:05:39;24.20;;;9.70;;
61911;SDS011;49973;52.084;5.412;2023-08-31T05:08:08;19.73;;;9.00;;
61911;SDS011;49973;52.084;5.412;2023-08-31T05:10:37;22.70;;;10.07;;
61911;SDS011;49973;52.084;5.412;2023-08-31T05:13:06;20.37;;;10.33;;
61911;SDS011;49973;52.084;5.412;2023-08-31T05:15:34;23.90;;;10.83;;
61911;SDS011;49973;52.084;5.412;2023-08-31T05:18:03;29.17;;;12.97;;
61911;SDS011;49973;52.084;5.412;2023-08-31T05:20:36;25.10;;;12.70;;
61911;SDS011;49973;52.084;5.412;2023-08-31T05:23:04;26.50;;;11.77;;
61911;SDS011;49973;52.084;5.412;2023-08-31T05:25:33;30.70;;;12.57;;
61911;SDS011;49973;52.084;5.412;2023-08-31T05:28:02;23.13;;;11.00;;
61911;SDS011;49973;52.084;5.412;2023-08-31T05:30:31;19.27;;;10.63;;
61911;SDS011;49973;52.084;5.412;2023-08-31T05:33:01;26.57;;;12.47;;
61911;SDS011;49973;52.084;5.412;2023-08-31T05:35:30;17.50;;;9.80;;
61911;SDS011;49973;52.084;5.412;2023-08-31T05:38:00;18.40;;;11.47;;
61911;SDS011;49973;52.084;5.412;2023-08-31T05:40:29;21.83;;;10.93;;
61911;SDS011;49973;52.084;5.412;2023-08-31T05:42:58;28.70;;;11.10;;
61911;SDS011;49973;52.084;5.412;2023-08-31T05:45:26;25.93;;;11.23;;
61911;SDS011;49973;52.084;5.412;2023-08-31T05:47:55;26.17;;;11.37;;
61911;SDS011;49973;52.084;5.412;2023-08-31T05:50:24;22.83;;;11.50;;
61911;SDS011;49973;52.084;5.412;2023-08-31T05:52:52;29.47;;;12.70;;
61911;SDS011;49973;52.084;5.412;2023-08-31T05:55:22;31.17;;;11.00;;
61911;SDS011;49973;52.084;5.412;2023-08-31T05:57:51;26.20;;;12.07;;
61911;SDS011;49973;52.084;5.412;2023-08-31T06:00:20;37.97;;;11.87;;
61911;SDS011;49973;52.084;5.412;2023-08-31T06:02:48;27.77;;;13.23;;
61911;SDS011;49973;52.084;5.412;2023-08-31T06:05:17;42.73;;;13.47;;
61911;SDS011;49973;52.084;5.412;2023-08-31T06:07:46;25.97;;;12.47;;
61911;SDS011;49973;52.084;5.412;2023-08-31T06:10:15;21.27;;;12.63;;
61911;SDS011;49973;52.084;5.412;2023-08-31T06:12:45;32.23;;;13.53;;
61911;SDS011;49973;52.084;5.412;2023-08-31T06:15:14;25.50;;;12.07;;
61911;SDS011;49973;52.084;5.412;2023-08-31T06:17:43;27.77;;;13.60;;
61911;SDS011;49973;52.084;5.412;2023-08-31T06:20:11;28.63;;;12.87;;
61911;SDS011;49973;52.084;5.412;2023-08-31T06:22:40;34.37;;;14.80;;
61911;SDS011;49973;52.084;5.412;2023-08-31T06:25:09;26.83;;;13.00;;
61911;SDS011;49973;52.084;5.412;2023-08-31T06:27:39;32.27;;;13.90;;
61911;SDS011;49973;52.084;5.412;2023-08-31T06:30:11;29.80;;;14.03;;
61911;SDS011;49973;52.084;5.412;2023-08-31T06:32:42;32.57;;;13.93;;
61911;SDS011;49973;52.084;5.412;2023-08-31T06:35:12;23.33;;;11.93;;
61911;SDS011;49973;52.084;5.412;2023-08-31T06:37:43;29.80;;;13.13;;
61911;SDS011;49973;52.084;5.412;2023-08-31T06:40:12;23.83;;;11.90;;
61911;SDS011;49973;52.084;5.412;2023-08-31T06:42:41;28.73;;;12.63;;
61911;SDS011;49973;52.084;5.412;2023-08-31T06:45:11;20.63;;;11.47;;
61911;SDS011;49973;52.084;5.412;2023-08-31T06:47:40;21.40;;;9.87;;
61911;SDS011;49973;52.084;5.412;2023-08-31T06:50:09;14.70;;;7.73;;
61911;SDS011;49973;52.084;5.412;2023-08-31T06:52:37;21.50;;;7.73;;
61911;SDS011;49973;52.084;5.412;2023-08-31T06:55:08;18.90;;;7.67;;
61911;SDS011;49973;52.084;5.412;2023-08-31T06:57:38;14.30;;;8.13;;
61911;SDS011;49973;52.084;5.412;2023-08-31T07:00:07;17.53;;;8.80;;
61911;SDS011;49973;52.084;5.412;2023-08-31T07:02:38;20.77;;;8.90;;
61911;SDS011;49973;52.084;5.412;2023-08-31T07:05:08;21.97;;;9.77;;
61911;SDS011;49973;52.084;5.412;2023-08-31T07:07:38;23.73;;;11.07;;
61911;SDS011;49973;52.084;5.412;2023-08-31T07:10:07;26.73;;;11.73;;
61911;SDS011;49973;52.084;5.412;2023-08-31T07:12:36;20.83;;;10.87;;
61911;SDS011;49973;52.084;5.412;2023-08-31T07:15:05;17.47;;;9.57;;
61911;SDS011;49973;52.084;5.412;2023-08-31T07:17:34;17.43;;;9.80;;
61911;SDS011;49973;52.084;5.412;2023-08-31T07:20:04;17.97;;;9.47;;
61911;SDS011;49973;52.084;5.412;2023-08-31T07:22:34;17.07;;;9.03;;
61911;SDS011;49973;52.084;5.412;2023-08-31T07:25:03;19.97;;;8.90;;
61911;SDS011;49973;52.084;5.412;2023-08-31T07:27:34;16.30;;;8.00;;
61911;SDS011;49973;52.084;5.412;2023-08-31T07:30:03;13.47;;;7.40;;
61911;SDS011;49973;52.084;5.412;2023-08-31T07:32:32;19.30;;;7.47;;
61911;SDS011;49973;52.084;5.412;2023-08-31T07:35:01;13.97;;;7.90;;
61911;SDS011;49973;52.084;5.412;2023-08-31T07:37:33;17.83;;;8.27;;
61911;SDS011;49973;52.084;5.412;2023-08-31T07:40:02;14.87;;;7.80;;
61911;SDS011;49973;52.084;5.412;2023-08-31T07:42:35;12.73;;;7.17;;
61911;SDS011;49973;52.084;5.412;2023-08-31T07:45:04;12.47;;;8.40;;
61911;SDS011;49973;52.084;5.412;2023-08-31T07:47:34;17.17;;;9.20;;
61911;SDS011;49973;52.084;5.412;2023-08-31T07:50:02;18.37;;;9.30;;
61911;SDS011;49973;52.084;5.412;2023-08-31T07:52:33;31.17;;;12.23;;
61911;SDS011;49973;52.084;5.412;2023-08-31T07:55:02;23.47;;;10.50;;
61911;SDS011;49973;52.084;5.412;2023-08-31T07:57:31;19.53;;;8.70;;
61911;SDS011;49973;52.084;5.412;2023-08-31T08:00:01;13.73;;;7.03;;
61911;SDS011;49973;52.084;5.412;2023-08-31T08:02:38;10.60;;;6.33;;
61911;SDS011;49973;52.084;5.412;2023-08-31T08:05:07;11.37;;;6.53;;
61911;SDS011;49973;52.084;5.412;2023-08-31T08:07:38;11.03;;;7.10;;
61911;SDS011;49973;52.084;5.412;2023-08-31T08:10:09;12.00;;;6.77;;
61911;SDS011;49973;52.084;5.412;2023-08-31T08:12:38;12.07;;;6.57;;
61911;SDS011;49973;52.084;5.412;2023-08-31T08:15:07;14.33;;;8.13;;
61911;SDS011;49973;52.084;5.412;2023-08-31T08:17:36;16.43;;;8.30;;
61911;SDS011;49973;52.084;5.412;2023-08-31T08:20:06;18.67;;;8.67;;
61911;SDS011;49973;52.084;5.412;2023-08-31T08:22:37;19.23;;;9.03;;
61911;SDS011;49973;52.084;5.412;2023-08-31T08:25:06;17.03;;;10.43;;
61911;SDS011;49973;52.084;5.412;2023-08-31T08:27:35;14.97;;;8.47;;
61911;SDS011;49973;52.084;5.412;2023-08-31T08:30:05;21.63;;;10.50;;
61911;SDS011;49973;52.084;5.412;2023-08-31T08:32:34;17.33;;;9.67;;
61911;SDS011;49973;52.084;5.412;2023-08-31T08:35:03;16.27;;;10.43;;
61911;SDS011;49973;52.084;5.412;2023-08-31T08:37:32;18.33;;;10.67;;
61911;SDS011;49973;52.084;5.412;2023-08-31T08:40:03;14.93;;;10.43;;
61911;SDS011;49973;52.084;5.412;2023-08-31T08:42:33;24.77;;;8.03;;
61911;SDS011;49973;52.084;5.412;2023-08-31T08:45:11;9.43;;;6.03;;
61911;SDS011;49973;52.084;5.412;2023-08-31T08:47:43;9.13;;;5.03;;
61911;SDS011;49973;52.084;5.412;2023-08-31T08:50:12;6.50;;;5.10;;
61911;SDS011;49973;52.084;5.412;2023-08-31T08:52:41;7.30;;;4.57;;
61911;SDS011;49973;52.084;5.412;2023-08-31T08:55:12;8.33;;;4.80;;
61911;SDS011;49973;52.084;5.412;2023-08-31T08:57:41;10.00;;;4.10;;
61911;SDS011;49973;52.084;5.412;2023-08-31T09:00:10;5.13;;;4.33;;
61911;SDS011;49973;52.084;5.412;2023-08-31T09:02:40;7.77;;;4.40;;
61911;SDS011;49973;52.084;5.412;2023-08-31T09:05:10;6.57;;;4.57;;
61911;SDS011;49973;52.084;5.412;2023-08-31T09:07:46;5.40;;;4.20;;
61911;SDS011;49973;52.084;5.412;2023-08-31T09:10:34;4.67;;;3.70;;
61911;SDS011;49973;52.084;5.412;2023-08-31T09:13:07;6.93;;;4.40;;
61911;SDS011;49973;52.084;5.412;2023-08-31T09:15:38;4.13;;;3.13;;
61911;SDS011;49973;52.084;5.412;2023-08-31T09:18:10;13.77;;;4.20;;
61911;SDS011;49973;52.084;5.412;2023-08-31T09:20:43;5.43;;;4.20;;
61911;SDS011;49973;52.084;5.412;2023-08-31T09:23:13;10.03;;;4.83;;
61911;SDS011;49973;52.084;5.412;2023-08-31T09:25:44;3.93;;;3.23;;
61911;SDS011;49973;52.084;5.412;2023-08-31T09:28:15;3.47;;;2.60;;
61911;SDS011;49973;52.084;5.412;2023-08-31T09:30:45;2.90;;;2.50;;
61911;SDS011;49973;52.084;5.412;2023-08-31T09:33:15;2.37;;;2.17;;
61911;SDS011;49973;52.084;5.412;2023-08-31T09:35:48;4.90;;;2.80;;
61911;SDS011;49973;52.084;5.412;2023-08-31T09:38:18;6.10;;;3.60;;
61911;SDS011;49973;52.084;5.412;2023-08-31T09:40:49;3.43;;;2.40;;
61911;SDS011;49973;52.084;5.412;2023-08-31T09:43:20;4.33;;;2.10;;
61911;SDS011;49973;52.084;5.412;2023-08-31T09:45:51;3.60;;;1.50;;
61911;SDS011;49973;52.084;5.412;2023-08-31T09:48:21;2.07;;;1.47;;
61911;SDS011;49973;52.084;5.412;2023-08-31T09:50:51;2.50;;;1.80;;
61911;SDS011;49973;52.084;5.412;2023-08-31T09:53:20;8.60;;;1.90;;
61911;SDS011;49973;52.084;5.412;2023-08-31T09:55:56;4.60;;;1.70;;
61911;SDS011;49973;52.084;5.412;2023-08-31T09:58:26;5.93;;;1.23;;
61911;SDS011;49973;52.084;5.412;2023-08-31T10:00:58;2.50;;;1.40;;
61911;SDS011;49973;52.084;5.412;2023-08-31T10:03:29;4.47;;;1.50;;
61911;SDS011;49973;52.084;5.412;2023-08-31T10:05:58;4.27;;;1.00;;
61911;SDS011;49973;52.084;5.412;2023-08-31T10:08:28;3.17;;;1.10;;
61911;SDS011;49973;52.084;5.412;2023-08-31T10:11:00;2.73;;;0.80;;
61911;SDS011;49973;52.084;5.412;2023-08-31T10:13:31;6.67;;;1.10;;
61911;SDS011;49973;52.084;5.412;2023-08-31T10:16:03;1.73;;;0.77;;
61911;SDS011;49973;52.084;5.412;2023-08-31T10:18:34;1.60;;;0.90;;
61911;SDS011;49973;52.084;5.412;2023-08-31T10:21:03;5.60;;;0.97;;
61911;SDS011;49973;52.084;5.412;2023-08-31T10:23:32;4.93;;;0.80;;
61911;SDS011;49973;52.084;5.412;2023-08-31T10:26:06;2.20;;;0.60;;
61911;SDS011;49973;52.084;5.412;2023-08-31T10:28:41;6.60;;;1.17;;
61911;SDS011;49973;52.084;5.412;2023-08-31T10:31:15;2.20;;;0.83;;
61911;SDS011;49973;52.084;5.412;2023-08-31T10:33:45;1.53;;;0.60;;
61911;SDS011;49973;52.084;5.412;2023-08-31T10:36:15;0.70;;;0.53;;
61911;SDS011;49973;52.084;5.412;2023-08-31T10:38:46;1.83;;;0.70;;
61911;SDS011;49973;52.084;5.412;2023-08-31T10:41:32;2.10;;;0.87;;
61911;SDS011;49973;52.084;5.412;2023-08-31T10:44:18;3.27;;;0.80;;
61911;SDS011;49973;52.084;5.412;2023-08-31T10:46:48;0.57;;;0.57;;
61911;SDS011;49973;52.084;5.412;2023-08-31T10:49:19;5.60;;;0.80;;
61911;SDS011;49973;52.084;5.412;2023-08-31T10:51:49;1.43;;;0.30;;
61911;SDS011;49973;52.084;5.412;2023-08-31T10:54:24;1.80;;;0.70;;
61911;SDS011;49973;52.084;5.412;2023-08-31T10:57:01;1.23;;;0.80;;
61911;SDS011;49973;52.084;5.412;2023-08-31T10:59:47;1.43;;;0.60;;
61911;SDS011;49973;52.084;5.412;2023-08-31T11:02:32;4.37;;;1.00;;
61911;SDS011;49973;52.084;5.412;2023-08-31T11:05:06;0.80;;;0.60;;
61911;SDS011;49973;52.084;5.412;2023-08-31T11:07:37;3.03;;;1.00;;
61911;SDS011;49973;52.084;5.412;2023-08-31T11:10:12;3.93;;;0.67;;
61911;SDS011;49973;52.084;5.412;2023-08-31T11:12:47;1.30;;;0.67;;
61911;SDS011;49973;52.084;5.412;2023-08-31T11:15:24;3.20;;;0.77;;
61911;SDS011;49973;52.084;5.412;2023-08-31T11:17:54;0.87;;;0.40;;
61911;SDS011;49973;52.084;5.412;2023-08-31T11:20:25;4.63;;;0.60;;
61911;SDS011;49973;52.084;5.412;2023-08-31T11:22:55;1.20;;;0.70;;
61911;SDS011;49973;52.084;5.412;2023-08-31T11:25:25;1.53;;;0.60;;
61911;SDS011;49973;52.084;5.412;2023-08-31T11:27:56;0.93;;;0.50;;
61911;SDS011;49973;52.084;5.412;2023-08-31T11:30:26;0.97;;;0.70;;
61911;SDS011;49973;52.084;5.412;2023-08-31T11:33:01;3.07;;;0.80;;
61911;SDS011;49973;52.084;5.412;2023-08-31T11:35:32;1.93;;;0.70;;
61911;SDS011;49973;52.084;5.412;2023-08-31T11:38:04;2.97;;;1.13;;
61911;SDS011;49973;52.084;5.412;2023-08-31T11:40:33;2.53;;;1.23;;
61911;SDS011;49973;52.084;5.412;2023-08-31T11:43:05;1.13;;;0.93;;
61911;SDS011;49973;52.084;5.412;2023-08-31T11:45:34;4.50;;;0.73;;
61911;SDS011;49973;52.084;5.412;2023-08-31T11:48:06;1.80;;;0.60;;
61911;SDS011;49973;52.084;5.412;2023-08-31T11:50:36;2.33;;;0.70;;
61911;SDS011;49973;52.084;5.412;2023-08-31T11:53:06;2.33;;;0.47;;
61911;SDS011;49973;52.084;5.412;2023-08-31T11:55:37;0.80;;;0.50;;
61911;SDS011;49973;52.084;5.412;2023-08-31T11:58:27;1.63;;;0.60;;
61911;SDS011;49973;52.084;5.412;2023-08-31T12:00:57;2.17;;;0.43;;
61911;SDS011;49973;52.084;5.412;2023-08-31T12:03:41;1.97;;;0.70;;
61911;SDS011;49973;52.084;5.412;2023-08-31T12:06:17;0.60;;;0.50;;
61911;SDS011;49973;52.084;5.412;2023-08-31T12:08:52;4.53;;;0.90;;
61911;SDS011;49973;52.084;5.412;2023-08-31T12:11:51;1.80;;;0.50;;
61911;SDS011;49973;52.084;5.412;2023-08-31T12:14:22;0.70;;;0.50;;
61911;SDS011;49973;52.084;5.412;2023-08-31T12:16:52;1.80;;;0.40;;
61911;SDS011;49973;52.084;5.412;2023-08-31T12:20:01;5.30;;;0.80;;
61911;SDS011;49973;52.084;5.412;2023-08-31T12:22:34;0.80;;;0.50;;
61911;SDS011;49973;52.084;5.412;2023-08-31T12:25:04;2.00;;;1.20;;
61911;SDS011;49973;52.084;5.412;2023-08-31T12:27:34;1.90;;;0.80;;
61911;SDS011;49973;52.084;5.412;2023-08-31T12:30:05;2.63;;;1.00;;
61911;SDS011;49973;52.084;5.412;2023-08-31T12:32:36;5.17;;;0.87;;
61911;SDS011;49973;52.084;5.412;2023-08-31T12:35:06;1.47;;;0.60;;
61911;SDS011;49973;52.084;5.412;2023-08-31T12:37:47;1.00;;;0.67;;
61911;SDS011;49973;52.084;5.412;2023-08-31T12:40:25;2.00;;;0.60;;
61911;SDS011;49973;52.084;5.412;2023-08-31T12:42:55;1.47;;;0.50;;
61911;SDS011;49973;52.084;5.412;2023-08-31T12:45:28;0.60;;;0.30;;
61911;SDS011;49973;52.084;5.412;2023-08-31T12:48:41;0.47;;;0.43;;
61911;SDS011;49973;52.084;5.412;2023-08-31T12:51:13;0.50;;;0.50;;
61911;SDS011;49973;52.084;5.412;2023-08-31T12:53:50;4.03;;;0.77;;
61911;SDS011;49973;52.084;5.412;2023-08-31T12:56:41;1.73;;;0.77;;
61911;SDS011;49973;52.084;5.412;2023-08-31T12:59:23;0.53;;;0.53;;
61911;SDS011;49973;52.084;5.412;2023-08-31T13:02:04;2.03;;;0.43;;
61911;SDS011;49973;52.084;5.412;2023-08-31T13:04:46;0.83;;;0.63;;
61911;SDS011;49973;52.084;5.412;2023-08-31T13:07:15;2.77;;;0.80;;
61911;SDS011;49973;52.084;5.412;2023-08-31T13:09:44;4.13;;;0.70;;
61911;SDS011;49973;52.084;5.412;2023-08-31T13:12:15;2.90;;;0.80;;
61911;SDS011;49973;52.084;5.412;2023-08-31T13:14:44;1.97;;;1.07;;
61911;SDS011;49973;52.084;5.412;2023-08-31T13:17:14;2.30;;;0.77;;
61911;SDS011;49973;52.084;5.412;2023-08-31T13:19:43;4.30;;;0.90;;
61911;SDS011;49973;52.084;5.412;2023-08-31T13:22:13;0.77;;;0.60;;
61911;SDS011;49973;52.084;5.412;2023-08-31T13:24:46;1.60;;;0.80;;
61911;SDS011;49973;52.084;5.412;2023-08-31T13:27:16;2.07;;;0.80;;
61911;SDS011;49973;52.084;5.412;2023-08-31T13:29:45;0.77;;;0.60;;
61911;SDS011;49973;52.084;5.412;2023-08-31T13:32:15;2.57;;;0.40;;
61911;SDS011;49973;52.084;5.412;2023-08-31T13:34:44;1.40;;;0.73;;
61911;SDS011;49973;52.084;5.412;2023-08-31T13:37:13;1.53;;;1.00;;
61911;SDS011;49973;52.084;5.412;2023-08-31T13:39:45;1.67;;;0.47;;
61911;SDS011;49973;52.084;5.412;2023-08-31T13:42:19;1.10;;;0.83;;
61911;SDS011;49973;52.084;5.412;2023-08-31T13:45:00;1.13;;;0.60;;
61911;SDS011;49973;52.084;5.412;2023-08-31T13:47:38;0.73;;;0.60;;
61911;SDS011;49973;52.084;5.412;2023-08-31T13:50:14;2.20;;;0.83;;
61911;SDS011;49973;52.084;5.412;2023-08-31T13:52:46;3.77;;;0.70;;
61911;SDS011;49973;52.084;5.412;2023-08-31T13:55:25;2.80;;;0.63;;
61911;SDS011;49973;52.084;5.412;2023-08-31T13:58:39;4.53;;;0.63;;
61911;SDS011;49973;52.084;5.412;2023-08-31T14:01:23;3.10;;;0.57;;
61911;SDS011;49973;52.084;5.412;2023-08-31T14:03:55;2.53;;;0.67;;
61911;SDS011;49973;52.084;5.412;2023-08-31T14:06:25;3.53;;;0.83;;
61911;SDS011;49973;52.084;5.412;2023-08-31T14:08:57;1.50;;;0.70;;
61911;SDS011;49973;52.084;5.412;2023-08-31T14:11:31;3.03;;;0.83;;
61911;SDS011;49973;52.084;5.412;2023-08-31T14:14:10;1.37;;;0.70;;
61911;SDS011;49973;52.084;5.412;2023-08-31T14:17:12;1.93;;;0.67;;
61911;SDS011;49973;52.084;5.412;2023-08-31T14:19:52;3.73;;;0.70;;
61911;SDS011;49973;52.084;5.412;2023-08-31T14:22:34;1.87;;;0.80;;
61911;SDS011;49973;52.084;5.412;2023-08-31T14:25:07;1.13;;;0.53;;
61911;SDS011;49973;52.084;5.412;2023-08-31T14:27:38;2.67;;;0.60;;
61911;SDS011;49973;52.084;5.412;2023-08-31T14:30:35;3.70;;;0.80;;
61911;SDS011;49973;52.084;5.412;2023-08-31T14:34:09;2.40;;;1.10;;
61911;SDS011;49973;52.084;5.412;2023-08-31T14:37:50;3.77;;;0.80;;
61911;SDS011;49973;52.084;5.412;2023-08-31T14:40:23;1.43;;;0.80;;
61911;SDS011;49973;52.084;5.412;2023-08-31T14:42:56;1.43;;;0.60;;
61911;SDS011;49973;52.084;5.412;2023-08-31T14:45:28;0.70;;;0.50;;
61911;SDS011;49973;52.084;5.412;2023-08-31T14:48:00;0.90;;;0.50;;
61911;SDS011;49973;52.084;5.412;2023-08-31T14:53:20;1.27;;;0.50;;
61911;SDS011;49973;52.084;5.412;2023-08-31T14:56:01;8.13;;;1.13;;
61911;SDS011;49973;52.084;5.412;2023-08-31T14:59:28;1.97;;;0.60;;
61911;SDS011;49973;52.084;5.412;2023-08-31T15:02:05;3.27;;;0.50;;
61911;SDS011;49973;52.084;5.412;2023-08-31T15:04:42;5.40;;;0.97;;
61911;SDS011;49973;52.084;5.412;2023-08-31T15:07:18;2.30;;;0.93;;
61911;SDS011;49973;52.084;5.412;2023-08-31T15:09:49;1.87;;;0.60;;
61911;SDS011;49973;52.084;5.412;2023-08-31T15:12:20;1.77;;;0.80;;